createdAt,value
2018-06-11T00:01:46.778Z,10.57
2018-06-11T00:04:15.552Z,10.47
2018-06-11T00:06:44.253Z,12.27
2018-06-11T00:09:13.003Z,15.07
2018-06-11T00:11:41.754Z,10.87
2018-06-11T00:14:10.616Z,9.63
2018-06-11T00:16:39.329Z,10.07
2018-06-11T00:19:08.042Z,10.03
2018-06-11T00:21:36.516Z,10.73
2018-06-11T00:24:04.953Z,11.50
2018-06-11T00:26:33.569Z,10.80
2018-06-11T00:29:02.292Z,13.43
2018-06-11T00:31:30.993Z,10.40
2018-06-11T00:34:00.086Z,10.93
2018-06-11T00:36:28.802Z,10.67
2018-06-11T00:38:57.550Z,10.60
2018-06-11T00:41:26.265Z,10.50
2018-06-11T00:43:54.973Z,12.50
2018-06-11T00:46:23.678Z,9.80
2018-06-11T00:48:52.413Z,10.97
2018-06-11T00:51:21.199Z,12.43
2018-06-11T00:53:49.921Z,10.50
2018-06-11T00:56:18.639Z,11.33
2018-06-11T00:58:47.353Z,10.67
2018-06-11T01:01:16.117Z,16.03
2018-06-11T01:03:44.833Z,11.27
2018-06-11T01:06:13.702Z,14.03
2018-06-11T01:08:42.419Z,15.97
2018-06-11T01:11:11.141Z,10.43
2018-06-11T01:13:39.886Z,13.83
2018-06-11T01:16:08.705Z,13.40
2018-06-11T01:18:37.422Z,12.13
2018-06-11T01:21:06.341Z,12.23
2018-06-11T01:23:35.933Z,14.67
2018-06-11T01:26:04.657Z,13.47
2018-06-11T01:28:33.374Z,13.20
2018-06-11T01:31:02.102Z,10.67
2018-06-11T01:33:30.821Z,12.07
2018-06-11T01:35:59.534Z,14.83
2018-06-11T01:38:28.345Z,11.53
2018-06-11T01:40:57.095Z,11.57
2018-06-11T01:43:25.813Z,13.10
2018-06-11T01:45:54.551Z,10.67
2018-06-11T01:48:23.293Z,10.70
2018-06-11T01:50:52.030Z,11.30
2018-06-11T01:53:20.746Z,13.93
2018-06-11T01:55:49.457Z,11.80
2018-06-11T01:58:18.198Z,11.93
2018-06-11T02:00:46.961Z,13.10
2018-06-11T02:03:15.682Z,11.47
2018-06-11T02:05:44.398Z,11.27
2018-06-11T02:08:13.121Z,11.07
2018-06-11T02:10:41.606Z,10.47
2018-06-11T02:13:10.226Z,10.53
2018-06-11T02:15:44.617Z,14.07
2018-06-11T02:18:13.343Z,11.83
2018-06-11T02:20:42.058Z,12.50
2018-06-11T02:23:10.756Z,16.27
2018-06-11T02:25:39.635Z,11.77
2018-06-11T02:28:08.334Z,12.43
2018-06-11T02:30:37.106Z,14.70
2018-06-11T02:33:05.857Z,15.97
2018-06-11T02:35:34.570Z,14.30
2018-06-11T02:38:03.290Z,12.13
2018-06-11T02:40:32.002Z,12.60
2018-06-11T02:43:01.833Z,12.37
2018-06-11T02:45:30.558Z,11.23
2018-06-11T02:47:59.273Z,11.97
2018-06-11T02:50:28.021Z,14.73
2018-06-11T02:52:56.733Z,11.17
2018-06-11T02:55:25.494Z,11.97
2018-06-11T02:57:54.210Z,14.03
2018-06-11T03:00:23.067Z,11.63
2018-06-11T03:02:51.821Z,15.03
2018-06-11T03:05:20.769Z,12.37
2018-06-11T03:07:49.615Z,14.80
2018-06-11T03:10:18.302Z,12.03
2018-06-11T03:12:47.029Z,12.43
2018-06-11T03:15:15.773Z,11.23
2018-06-11T03:17:44.485Z,12.60
2018-06-11T03:20:13.258Z,10.80
2018-06-11T03:22:42.165Z,13.93
2018-06-11T03:25:10.932Z,12.87
2018-06-11T03:27:39.690Z,13.13
2018-06-11T03:30:08.553Z,11.63
2018-06-11T03:32:37.326Z,24.80
2018-06-11T03:35:06.059Z,16.23
2018-06-11T03:37:34.805Z,13.00
2018-06-11T03:40:03.554Z,12.70
2018-06-11T03:42:32.751Z,17.40
2018-06-11T03:45:01.493Z,13.43
2018-06-11T03:47:30.205Z,17.80
2018-06-11T03:49:58.977Z,14.23
2018-06-11T03:52:27.693Z,14.80
2018-06-11T03:54:56.446Z,12.87
2018-06-11T03:57:25.149Z,14.63
2018-06-11T03:59:53.910Z,12.17
2018-06-11T04:02:22.637Z,12.60
2018-06-11T04:04:51.369Z,10.60
2018-06-11T04:07:20.101Z,15.63
2018-06-11T04:09:48.969Z,13.53
2018-06-11T04:12:17.673Z,15.07
2018-06-11T04:14:46.409Z,16.20
2018-06-11T04:17:15.126Z,13.20
2018-06-11T04:19:43.881Z,15.43
2018-06-11T04:22:12.622Z,14.30
2018-06-11T04:24:42.349Z,17.30
2018-06-11T04:27:11.074Z,13.87
2018-06-11T04:29:39.793Z,12.03
2018-06-11T04:32:08.494Z,14.00
2018-06-11T04:34:37.209Z,15.77
2018-06-11T04:37:05.981Z,16.10
2018-06-11T04:39:34.879Z,13.10
2018-06-11T04:42:03.578Z,14.97
2018-06-11T04:44:32.319Z,12.43
2018-06-11T04:47:01.609Z,16.57
2018-06-11T04:49:30.322Z,13.50
2018-06-11T04:51:59.046Z,13.33
2018-06-11T04:54:27.762Z,13.27
2018-06-11T04:56:56.481Z,15.43
2018-06-11T04:59:25.197Z,15.33
2018-06-11T05:01:53.930Z,14.60
2018-06-11T05:04:22.673Z,16.50
2018-06-11T05:06:51.451Z,17.80
2018-06-11T05:09:20.230Z,15.70
2018-06-11T05:11:48.946Z,13.17
2018-06-11T05:14:17.825Z,14.53
2018-06-11T05:16:46.562Z,13.63
2018-06-11T05:19:15.284Z,15.77
2018-06-11T05:21:44.001Z,16.40
2018-06-11T05:24:12.746Z,14.80
2018-06-11T05:26:41.469Z,16.63
2018-06-11T05:29:10.193Z,15.60
2018-06-11T05:31:38.905Z,15.47
2018-06-11T05:34:07.621Z,14.53
2018-06-11T05:36:36.332Z,16.50
2018-06-11T05:39:07.348Z,15.67
2018-06-11T05:41:36.550Z,15.80
2018-06-11T05:44:05.273Z,16.33
2018-06-11T05:46:34.002Z,20.30
2018-06-11T05:49:02.817Z,14.50
2018-06-11T05:51:31.541Z,14.07
2018-06-11T05:54:00.306Z,16.10
2018-06-11T05:56:29.258Z,13.77
2018-06-11T05:58:57.977Z,14.83
2018-06-11T06:01:26.710Z,19.77
2018-06-11T06:03:55.526Z,27.67
2018-06-11T06:06:28.255Z,28.77
2018-06-11T06:08:57.988Z,19.57
2018-06-11T06:11:26.900Z,21.10
2018-06-11T06:13:55.560Z,19.57
2018-06-11T06:16:24.322Z,15.70
2018-06-11T06:18:53.029Z,15.40
2018-06-11T06:21:21.762Z,14.77
2018-06-11T06:23:50.493Z,15.50
2018-06-11T06:26:19.234Z,16.07
2018-06-11T06:28:47.949Z,17.07
2018-06-11T06:31:16.821Z,17.80
2018-06-11T06:33:45.529Z,17.80
2018-06-11T06:36:14.280Z,17.70
2018-06-11T06:38:43.085Z,19.43
2018-06-11T06:41:11.909Z,18.20
2018-06-11T06:43:40.648Z,16.23
2018-06-11T06:46:09.362Z,17.47
2018-06-11T06:48:38.087Z,18.07
2018-06-11T06:51:06.846Z,15.20
2018-06-11T06:53:35.606Z,14.93
2018-06-11T06:56:04.326Z,14.30
2018-06-11T06:58:33.065Z,17.03
2018-06-11T07:01:01.790Z,18.60
2018-06-11T07:03:30.490Z,14.83
2018-06-11T07:05:59.226Z,14.33
2018-06-11T07:08:27.998Z,15.50
2018-06-11T07:10:56.669Z,14.90
2018-06-11T07:13:25.413Z,15.27
2018-06-11T07:15:54.126Z,14.27
2018-06-11T07:18:22.997Z,15.60
2018-06-11T07:20:51.705Z,14.73
2018-06-11T07:23:20.433Z,16.57
2018-06-11T07:25:49.153Z,15.70
2018-06-11T07:28:17.865Z,16.80
2018-06-11T07:30:46.599Z,18.80
2018-06-11T07:33:15.322Z,16.40
2018-06-11T07:35:44.057Z,15.73
2018-06-11T07:38:12.769Z,13.97
2018-06-11T07:40:41.593Z,14.17
2018-06-11T07:43:10.305Z,15.40
2018-06-11T07:45:39.049Z,15.43
2018-06-11T07:48:07.791Z,15.97
2018-06-11T07:50:36.653Z,17.83
2018-06-11T07:53:05.425Z,15.63
2018-06-11T07:55:34.150Z,16.23
2018-06-11T07:58:02.965Z,16.20
2018-06-11T08:00:31.785Z,16.20
2018-06-11T08:03:00.501Z,15.83
2018-06-11T08:05:29.387Z,15.50
2018-06-11T08:07:58.129Z,16.37
2018-06-11T08:10:26.853Z,17.07
2018-06-11T08:12:55.616Z,14.53
2018-06-11T08:15:24.330Z,14.87
2018-06-11T08:17:53.212Z,15.13
2018-06-11T08:20:21.954Z,17.10
2018-06-11T08:22:50.666Z,14.80
2018-06-11T08:25:19.506Z,15.60
2018-06-11T08:27:48.221Z,15.17
2018-06-11T08:30:16.998Z,14.53
2018-06-11T08:32:51.721Z,15.13
2018-06-11T08:35:20.470Z,13.33
2018-06-11T08:37:49.213Z,15.60
2018-06-11T08:40:17.926Z,13.83
2018-06-11T08:42:46.645Z,16.87
2018-06-11T08:45:15.403Z,15.10
2018-06-11T08:47:44.127Z,13.63
2018-06-11T08:50:12.888Z,14.17
2018-06-11T08:52:41.597Z,14.70
2018-06-11T08:55:10.305Z,14.67
2018-06-11T08:57:39.034Z,14.70
2018-06-11T09:00:07.979Z,15.20
2018-06-11T09:02:36.439Z,14.53
2018-06-11T09:05:05.221Z,15.07
2018-06-11T09:07:33.942Z,14.53
2018-06-11T09:10:02.673Z,14.47
2018-06-11T09:12:31.456Z,14.13
2018-06-11T09:15:00.301Z,14.03
2018-06-11T09:17:29.013Z,14.47
2018-06-11T09:22:32.606Z,17.90
2018-06-11T09:25:01.383Z,14.17
2018-06-11T09:27:30.077Z,12.83
2018-06-11T09:29:58.793Z,14.50
2018-06-11T09:32:27.537Z,12.43
2018-06-11T09:34:56.246Z,13.10
2018-06-11T09:37:25.097Z,12.87
2018-06-11T09:39:53.818Z,12.50
2018-06-11T09:42:22.530Z,11.63
2018-06-11T09:44:51.285Z,12.17
2018-06-11T09:47:19.985Z,12.33
2018-06-11T09:49:48.753Z,12.73
2018-06-11T09:52:17.457Z,13.67
2018-06-11T09:54:46.176Z,13.73
2018-06-11T09:57:14.913Z,13.83
2018-06-11T09:59:43.641Z,15.10
2018-06-11T10:02:12.417Z,17.10
2018-06-11T10:04:41.169Z,14.33
2018-06-11T10:07:09.912Z,15.97
2018-06-11T10:09:38.596Z,15.20
2018-06-11T10:12:07.317Z,17.20
2018-06-11T10:14:36.049Z,14.03
2018-06-11T10:17:04.766Z,14.53
2018-06-11T10:19:33.507Z,16.13
2018-06-11T10:22:02.218Z,13.67
2018-06-11T10:24:30.933Z,16.00
2018-06-11T10:26:59.425Z,17.90
2018-06-11T10:29:28.089Z,17.80
2018-06-11T10:31:56.809Z,14.90
2018-06-11T10:34:25.536Z,14.60
2018-06-11T10:36:54.261Z,14.53
2018-06-11T10:39:23.026Z,18.30
2018-06-11T10:41:51.971Z,14.73
2018-06-11T10:44:20.689Z,15.90
2018-06-11T10:46:49.410Z,16.30
2018-06-11T10:49:18.178Z,16.60
2018-06-11T10:51:46.961Z,14.63
2018-06-11T10:54:15.697Z,15.53
2018-06-11T10:56:44.429Z,16.10
2018-06-11T10:59:13.304Z,14.60
2018-06-11T11:01:42.013Z,15.83
2018-06-11T11:04:10.728Z,15.57
2018-06-11T11:06:39.722Z,13.83
2018-06-11T11:09:08.463Z,13.47
2018-06-11T11:11:37.186Z,13.00
2018-06-11T11:14:12.633Z,17.13
2018-06-11T11:16:41.426Z,12.97
2018-06-11T11:19:10.157Z,16.97
2018-06-11T11:21:39.022Z,14.47
2018-06-11T11:24:07.805Z,12.93
2018-06-11T11:26:36.628Z,13.70
2018-06-11T11:29:05.495Z,13.23
2018-06-11T11:31:34.491Z,13.47
2018-06-11T11:34:02.958Z,12.27
2018-06-11T11:36:31.597Z,12.43
2018-06-11T11:39:00.999Z,10.10
2018-06-11T11:41:30.545Z,10.17
2018-06-11T11:44:00.070Z,13.37
2018-06-11T11:46:29.962Z,10.37
2018-06-11T11:48:59.776Z,12.00
2018-06-11T11:51:28.501Z,10.20
2018-06-11T11:53:57.202Z,9.27
2018-06-11T11:56:25.929Z,10.43
2018-06-11T11:58:54.717Z,11.27
2018-06-11T12:01:23.477Z,10.03
2018-06-11T12:03:52.203Z,9.77
2018-06-11T12:06:20.942Z,9.37
2018-06-11T12:08:49.681Z,12.13
2018-06-11T12:11:18.413Z,11.27
2018-06-11T12:13:47.142Z,9.70
2018-06-11T12:16:15.865Z,10.47
2018-06-11T12:18:44.624Z,11.20
2018-06-11T12:21:13.369Z,10.90
2018-06-11T12:23:42.082Z,14.93
2018-06-11T12:26:10.810Z,9.83
2018-06-11T12:28:39.526Z,8.73
2018-06-11T12:31:08.233Z,9.23
2018-06-11T12:33:36.969Z,8.80
2018-06-11T12:36:05.761Z,9.90
2018-06-11T12:38:34.505Z,10.00
2018-06-11T12:41:03.233Z,9.87
2018-06-11T12:43:31.930Z,10.33
2018-06-11T12:46:00.781Z,11.10
2018-06-11T12:48:29.493Z,10.27
2018-06-11T12:50:58.296Z,11.53
2018-06-11T12:53:27.014Z,11.60
2018-06-11T12:55:55.844Z,10.80
2018-06-11T12:58:24.570Z,11.70
2018-06-11T13:00:53.281Z,11.77
2018-06-11T13:03:21.997Z,10.00
2018-06-11T13:05:50.846Z,11.07
2018-06-11T13:22:55.765Z,9.70
2018-06-11T13:25:24.474Z,10.73
2018-06-11T13:28:05.281Z,10.50
2018-06-11T13:30:34.058Z,10.33
2018-06-11T13:33:02.766Z,11.10
2018-06-11T13:35:31.746Z,12.13
2018-06-11T13:38:06.613Z,11.40
2018-06-11T13:40:35.370Z,10.67
2018-06-11T13:43:06.090Z,10.37
2018-06-11T13:45:34.809Z,11.07
2018-06-11T13:48:03.540Z,12.50
2018-06-11T13:50:32.354Z,11.93
2018-06-11T13:53:06.992Z,11.90
2018-06-11T13:55:35.693Z,12.27
2018-06-11T13:58:04.675Z,11.97
2018-06-11T14:00:33.393Z,12.67
2018-06-11T14:03:02.128Z,14.00
2018-06-11T14:05:30.997Z,11.00
2018-06-11T14:07:59.729Z,11.90
2018-06-11T14:10:28.486Z,15.10
2018-06-11T14:12:57.260Z,13.50
2018-06-11T14:15:25.986Z,16.10
2018-06-11T14:17:54.705Z,13.17
2018-06-11T14:20:23.397Z,13.63
2018-06-11T14:22:52.125Z,16.00
2018-06-11T14:25:20.901Z,14.23
2018-06-11T14:27:49.441Z,15.33
2018-06-11T14:30:18.215Z,17.03
2018-06-11T14:32:46.963Z,14.03
2018-06-11T14:35:15.446Z,12.53
2018-06-11T14:37:44.253Z,12.80
2018-06-11T14:40:12.977Z,13.50
2018-06-11T14:42:41.685Z,15.33
2018-06-11T14:45:10.409Z,13.80
2018-06-11T14:47:39.238Z,13.13
2018-06-11T14:50:07.994Z,14.20
2018-06-11T14:52:36.705Z,12.13
2018-06-11T14:55:05.430Z,15.63
2018-06-11T14:57:34.193Z,12.60
2018-06-11T15:00:02.987Z,14.40
2018-06-11T15:02:31.735Z,11.83
2018-06-11T15:05:00.534Z,13.57
2018-06-11T15:07:29.302Z,12.57
2018-06-11T15:09:58.529Z,12.10
2018-06-11T15:12:27.259Z,11.43
2018-06-11T15:14:56.039Z,13.50
2018-06-11T15:17:24.797Z,13.23
2018-06-11T15:19:53.524Z,13.23
2018-06-11T15:22:22.217Z,13.67
2018-06-11T15:24:50.981Z,13.57
2018-06-11T15:27:28.093Z,15.53
2018-06-11T15:29:56.841Z,15.40
2018-06-11T15:32:27.763Z,14.80
2018-06-11T15:55:35.582Z,16.47
2018-06-11T15:58:04.333Z,15.20
2018-06-11T16:00:33.116Z,14.27
2018-06-11T16:03:03.821Z,14.77
2018-06-11T16:05:32.546Z,16.27
2018-06-11T16:08:01.557Z,17.57
2018-06-11T16:10:37.925Z,16.33
2018-06-11T16:13:06.564Z,14.23
2018-06-11T16:15:35.225Z,15.77
2018-06-11T16:18:03.949Z,18.60
2018-06-11T16:20:32.776Z,15.57
2018-06-11T16:23:01.514Z,15.47
2018-06-11T16:25:30.403Z,19.97
2018-06-11T16:27:59.072Z,17.97
2018-06-11T16:30:27.798Z,18.13
2018-06-11T16:32:56.526Z,16.83
2018-06-11T16:35:25.405Z,16.53
2018-06-11T16:37:53.933Z,15.27
2018-06-11T16:40:22.660Z,15.77
2018-06-11T16:42:51.392Z,15.47
2018-06-11T16:45:20.169Z,15.63
2018-06-11T16:47:48.894Z,15.03
2018-06-11T16:50:17.650Z,16.63
2018-06-11T16:52:46.378Z,13.37
2018-06-11T16:55:15.158Z,16.00
2018-06-11T16:57:43.845Z,16.10
2018-06-11T17:00:12.562Z,14.40
2018-06-11T17:02:41.286Z,15.00
2018-06-11T17:05:10.026Z,13.23
2018-06-11T17:07:38.773Z,18.87
2018-06-11T17:10:07.690Z,15.37
2018-06-11T17:12:36.432Z,23.13
2018-06-11T17:15:05.206Z,18.43
2018-06-11T17:17:33.957Z,15.97
2018-06-11T17:20:02.682Z,20.67
2018-06-11T17:22:31.405Z,17.77
2018-06-11T17:25:00.149Z,20.63
2018-06-11T17:27:28.980Z,18.17
2018-06-11T17:29:57.717Z,17.60
2018-06-11T17:32:26.472Z,18.00
2018-06-11T17:34:55.189Z,19.27
2018-06-11T17:37:23.917Z,22.30
2018-06-11T17:39:52.657Z,20.17
2018-06-11T17:42:21.377Z,18.23
2018-06-11T17:44:50.114Z,17.07
2018-06-11T17:47:18.877Z,14.87
2018-06-11T17:49:47.649Z,19.97
2018-06-11T17:52:16.389Z,19.73
2018-06-11T17:54:45.110Z,21.27
2018-06-11T17:57:13.908Z,20.33
2018-06-11T17:59:42.614Z,17.67
2018-06-11T18:02:11.108Z,17.83
2018-06-11T18:04:39.818Z,17.80
2018-06-11T18:07:08.666Z,23.27
2018-06-11T18:09:37.378Z,19.83
2018-06-11T18:12:06.123Z,20.73
2018-06-11T18:14:34.843Z,20.27
2018-06-11T18:17:03.621Z,16.90
2018-06-11T18:19:32.436Z,17.33
2018-06-11T18:22:01.174Z,16.17
2018-06-11T18:24:29.922Z,20.17
2018-06-11T18:26:58.621Z,16.77
2018-06-11T18:29:27.401Z,16.30
2018-06-11T18:31:56.126Z,18.03
2018-06-11T18:34:24.849Z,18.33
2018-06-11T18:36:53.575Z,21.50
2018-06-11T18:39:22.342Z,18.10
2018-06-11T18:41:51.099Z,18.50
2018-06-11T18:44:19.869Z,18.60
2018-06-11T18:46:48.632Z,15.97
2018-06-11T18:49:17.351Z,15.37
2018-06-11T18:51:46.150Z,17.43
2018-06-11T18:54:14.897Z,19.47
2018-06-11T18:56:43.637Z,15.73
2018-06-11T18:59:12.506Z,16.03
2018-06-11T19:01:41.257Z,18.17
2018-06-11T19:04:09.999Z,14.43
2018-06-11T19:06:38.747Z,18.53
2018-06-11T19:09:08.065Z,15.93
2018-06-11T19:11:36.777Z,18.47
2018-06-11T19:14:05.502Z,16.63
2018-06-11T19:16:34.273Z,17.40
2018-06-11T19:19:03.062Z,16.97
2018-06-11T19:21:31.797Z,16.03
2018-06-11T19:24:00.578Z,15.00
2018-06-11T19:26:29.325Z,20.63
2018-06-11T19:28:58.060Z,16.10
2018-06-11T19:31:26.783Z,15.17
2018-06-11T19:33:55.503Z,17.17
2018-06-11T19:36:24.239Z,16.90
2018-06-11T19:38:52.981Z,19.70
2018-06-11T19:41:21.832Z,17.90
2018-06-11T19:43:50.575Z,18.07
2018-06-11T19:46:19.294Z,20.53
2018-06-11T19:48:48.025Z,17.60
2018-06-11T19:51:17.006Z,16.03
2018-06-11T19:53:45.689Z,20.43
2018-06-11T19:56:14.393Z,21.43
2018-06-11T19:58:43.125Z,18.10
2018-06-11T20:01:11.865Z,15.67
2018-06-11T20:03:40.573Z,16.33
2018-06-11T20:06:09.302Z,16.00
2018-06-11T20:08:38.017Z,16.73
2018-06-11T20:11:06.505Z,16.43
2018-06-11T20:13:36.173Z,19.50
2018-06-11T20:16:04.938Z,17.07
2018-06-11T20:18:33.661Z,16.57
2018-06-11T20:21:02.389Z,18.67
2018-06-11T20:23:31.168Z,16.47
2018-06-11T20:25:59.878Z,14.47
2018-06-11T20:28:28.625Z,17.90
2018-06-11T20:30:57.337Z,16.50
2018-06-11T20:33:26.081Z,15.00
2018-06-11T20:35:54.813Z,16.53
2018-06-11T20:38:23.577Z,12.10
2018-06-11T20:40:52.061Z,13.10
2018-06-11T20:43:20.705Z,16.00
2018-06-11T20:45:49.540Z,13.77
2018-06-11T20:48:18.301Z,12.20
2018-06-11T20:50:47.105Z,13.17
2018-06-11T20:53:16.053Z,11.87
2018-06-11T20:55:47.002Z,12.90
2018-06-11T20:58:16.204Z,13.80
2018-06-11T21:00:44.917Z,13.73
2018-06-11T21:03:13.693Z,13.07
2018-06-11T21:05:42.429Z,12.27
2018-06-11T21:08:11.154Z,12.73
2018-06-11T21:10:39.861Z,16.23
2018-06-11T21:13:08.611Z,14.13
2018-06-11T21:15:37.377Z,14.47
2018-06-11T21:18:06.093Z,15.40
2018-06-11T21:20:34.841Z,13.63
2018-06-11T21:23:03.586Z,13.27
2018-06-11T21:25:32.376Z,13.13
2018-06-11T21:28:02.433Z,12.30
2018-06-11T21:30:31.184Z,13.00
2018-06-11T21:33:00.027Z,11.23
2018-06-11T21:35:28.736Z,11.03
2018-06-11T21:37:57.447Z,11.13
2018-06-11T21:40:26.179Z,12.33
2018-06-11T21:43:01.505Z,11.97
2018-06-11T21:45:30.257Z,12.17
2018-06-11T21:47:58.981Z,14.90
2018-06-11T21:50:27.750Z,10.70
2018-06-11T21:52:56.649Z,12.00
2018-06-11T21:55:25.346Z,12.33
2018-06-11T21:57:54.106Z,12.23
2018-06-11T22:00:22.821Z,10.10
2018-06-11T22:02:51.535Z,10.10
2018-06-11T22:05:20.250Z,9.60
2018-06-11T22:07:48.949Z,12.47
2018-06-11T22:10:17.714Z,9.93
2018-06-11T22:12:46.474Z,16.47
2018-06-11T22:15:14.992Z,11.40
2018-06-11T22:17:43.650Z,12.97
2018-06-11T22:20:12.165Z,10.63
2018-06-11T22:22:40.838Z,11.03
2018-06-11T22:25:09.557Z,12.13
2018-06-11T22:27:38.297Z,11.90
2018-06-11T22:30:07.005Z,10.03
2018-06-11T22:32:35.725Z,10.97
2018-06-11T22:35:04.442Z,10.27
2018-06-11T22:37:33.218Z,11.07
2018-06-11T22:40:01.980Z,12.70
2018-06-11T22:42:30.693Z,9.97
2018-06-11T22:44:59.393Z,9.57
2018-06-11T22:47:28.133Z,10.47
2018-06-11T22:49:57.005Z,9.73
2018-06-11T22:52:25.713Z,11.40
2018-06-11T22:54:54.441Z,11.50
2018-06-11T22:57:23.210Z,10.17
2018-06-11T22:59:52.008Z,10.03
2018-06-11T23:02:20.718Z,10.47
2018-06-11T23:04:49.899Z,13.00
2018-06-11T23:07:18.610Z,10.53
2018-06-11T23:09:47.335Z,12.70
2018-06-11T23:12:16.070Z,12.47
2018-06-11T23:14:44.793Z,11.13
2018-06-11T23:17:13.504Z,12.87
2018-06-11T23:19:42.250Z,9.67
2018-06-11T23:22:10.733Z,10.67
2018-06-11T23:24:39.357Z,11.93
2018-06-11T23:27:08.086Z,10.67
2018-06-11T23:29:36.797Z,9.00
2018-06-11T23:32:05.644Z,10.00
2018-06-11T23:34:34.360Z,12.00
2018-06-11T23:37:03.124Z,9.20
2018-06-11T23:39:31.821Z,16.23
2018-06-11T23:42:00.546Z,10.43
2018-06-11T23:44:29.281Z,11.20
2018-06-11T23:46:58.069Z,9.27
2018-06-11T23:49:26.785Z,10.70
2018-06-11T23:51:55.486Z,11.97
2018-06-11T23:54:24.214Z,10.83
2018-06-11T23:56:52.968Z,11.00
2018-06-11T23:59:21.698Z,9.83
